createdAt,value
2019-03-24T00:00:11.764Z,85.80
2019-03-24T00:02:39.967Z,85.90
2019-03-24T00:05:06.811Z,86.00
2019-03-24T00:07:34.178Z,85.70
2019-03-24T00:10:00.415Z,86.00
2019-03-24T00:12:26.571Z,85.90
2019-03-24T00:14:52.763Z,85.80
2019-03-24T00:17:18.916Z,86.10
2019-03-24T00:19:45.108Z,85.50
2019-03-24T00:22:11.282Z,85.70
2019-03-24T00:24:38.548Z,86.50
2019-03-24T00:27:04.699Z,87.30
2019-03-24T00:29:30.879Z,87.30
2019-03-24T00:31:57.076Z,87.10
2019-03-24T00:34:23.269Z,87.00
2019-03-24T00:36:49.423Z,87.00
2019-03-24T00:39:15.675Z,87.20
2019-03-24T00:41:41.838Z,87.00
2019-03-24T00:44:07.998Z,87.10
2019-03-24T00:46:34.511Z,88.00
2019-03-24T00:49:00.666Z,87.40
2019-03-24T00:51:26.832Z,87.50
2019-03-24T00:53:53.016Z,87.30
2019-03-24T00:56:19.196Z,87.00
2019-03-24T00:58:45.382Z,87.10
2019-03-24T01:01:11.671Z,87.10
2019-03-24T01:03:38.049Z,87.20
2019-03-24T01:06:04.197Z,87.50
2019-03-24T01:08:30.364Z,87.50
2019-03-24T01:10:56.559Z,87.90
2019-03-24T01:13:22.721Z,87.70
2019-03-24T01:15:48.863Z,87.90
2019-03-24T01:18:15.058Z,88.40
2019-03-24T01:20:41.235Z,88.40
2019-03-24T01:23:07.392Z,88.30
2019-03-24T01:25:33.581Z,88.10
2019-03-24T01:27:59.947Z,88.20
2019-03-24T01:30:26.114Z,88.30
2019-03-24T01:32:53.326Z,88.50
2019-03-24T01:35:19.484Z,88.50
2019-03-24T01:37:45.691Z,88.60
2019-03-24T01:40:12.231Z,88.80
2019-03-24T01:42:38.399Z,89.00
2019-03-24T01:45:07.463Z,89.60
2019-03-24T01:47:33.648Z,88.80
2019-03-24T01:49:59.799Z,88.90
2019-03-24T01:52:25.955Z,89.00
2019-03-24T01:54:52.276Z,89.00
2019-03-24T01:57:18.436Z,89.10
2019-03-24T01:59:44.599Z,88.90
2019-03-24T02:02:10.808Z,89.00
2019-03-24T02:04:36.964Z,89.00
2019-03-24T02:07:03.146Z,89.00
2019-03-24T02:09:29.363Z,89.30
2019-03-24T02:11:55.516Z,89.60
2019-03-24T02:14:21.693Z,89.60
2019-03-24T02:16:47.868Z,89.80
2019-03-24T02:19:14.029Z,89.80
2019-03-24T02:21:40.228Z,90.00
2019-03-24T02:24:06.379Z,89.50
2019-03-24T02:26:32.535Z,90.00
2019-03-24T02:28:58.704Z,90.10
2019-03-24T02:31:24.868Z,90.00
2019-03-24T02:33:51.071Z,90.00
2019-03-24T02:36:17.242Z,90.00
2019-03-24T02:38:43.396Z,89.40
2019-03-24T02:41:09.623Z,88.90
2019-03-24T02:43:35.803Z,89.60
2019-03-24T02:46:02.054Z,90.00
2019-03-24T02:48:28.235Z,90.10
2019-03-24T02:50:54.383Z,90.10
2019-03-24T02:53:20.570Z,90.30
2019-03-24T02:55:47.719Z,90.30
2019-03-24T02:58:14.871Z,90.40
2019-03-24T03:00:41.076Z,90.40
2019-03-24T03:03:07.228Z,90.30
2019-03-24T03:05:33.445Z,90.40
2019-03-24T03:07:59.628Z,90.20
2019-03-24T03:10:26.872Z,90.20
2019-03-24T03:12:53.064Z,90.30
2019-03-24T03:15:19.237Z,90.30
2019-03-24T03:17:45.396Z,90.30
2019-03-24T03:20:11.940Z,90.40
2019-03-24T03:22:38.298Z,90.30
2019-03-24T03:25:06.649Z,90.20
2019-03-24T03:27:33.823Z,90.20
2019-03-24T03:29:59.977Z,90.40
2019-03-24T03:32:26.163Z,90.70
2019-03-24T03:34:55.961Z,90.80
2019-03-24T03:37:22.118Z,91.10
2019-03-24T03:39:48.361Z,90.70
2019-03-24T03:42:14.638Z,90.60
2019-03-24T03:44:40.959Z,90.70
2019-03-24T03:47:07.145Z,90.80
2019-03-24T03:49:33.300Z,90.40
2019-03-24T03:51:59.469Z,90.40
2019-03-24T03:54:25.642Z,90.30
2019-03-24T03:56:51.809Z,90.40
2019-03-24T03:59:17.985Z,90.60
2019-03-24T04:01:44.130Z,91.10
2019-03-24T04:04:10.347Z,90.70
2019-03-24T04:06:36.495Z,90.40
2019-03-24T04:09:04.568Z,90.50
2019-03-24T04:11:30.843Z,90.60
2019-03-24T04:13:57.022Z,90.40
2019-03-24T04:16:23.172Z,90.60
2019-03-24T04:18:49.907Z,90.70
2019-03-24T04:21:16.060Z,90.80
2019-03-24T04:23:42.221Z,91.10
2019-03-24T04:26:08.395Z,90.60
2019-03-24T04:28:34.557Z,90.60
2019-03-24T04:31:00.731Z,90.80
2019-03-24T04:33:26.881Z,90.80
2019-03-24T04:35:53.091Z,90.90
2019-03-24T04:38:19.252Z,91.50
2019-03-24T04:40:45.449Z,91.80
2019-03-24T04:43:11.617Z,91.70
2019-03-24T04:45:37.817Z,91.80
2019-03-24T04:48:04.103Z,92.10
2019-03-24T04:50:30.323Z,92.30
2019-03-24T04:52:56.486Z,92.00
2019-03-24T04:55:22.639Z,91.70
2019-03-24T04:57:48.824Z,91.40
2019-03-24T05:00:17.118Z,91.40
2019-03-24T05:02:43.287Z,91.90
2019-03-24T05:05:09.560Z,91.90
2019-03-24T05:07:35.939Z,91.80
2019-03-24T05:10:04.239Z,91.60
2019-03-24T05:12:30.527Z,91.10
2019-03-24T05:14:56.724Z,91.10
2019-03-24T05:17:26.953Z,91.20
2019-03-24T05:19:51.096Z,91.10
2019-03-24T05:22:17.269Z,91.20
2019-03-24T05:24:43.420Z,90.90
2019-03-24T05:27:09.588Z,90.80
2019-03-24T05:29:35.763Z,91.00
2019-03-24T05:32:01.907Z,90.70
2019-03-24T05:34:28.065Z,90.70
2019-03-24T05:36:54.427Z,90.60
2019-03-24T05:39:20.584Z,90.30
2019-03-24T05:41:46.739Z,90.10
2019-03-24T05:44:12.921Z,90.10
2019-03-24T05:46:39.067Z,89.80
2019-03-24T05:49:05.246Z,88.90
2019-03-24T05:51:31.435Z,87.60
2019-03-24T05:53:57.611Z,86.40
2019-03-24T05:56:23.787Z,85.60
2019-03-24T05:58:49.943Z,84.50
2019-03-24T06:01:16.199Z,81.70
2019-03-24T06:03:42.384Z,77.60
2019-03-24T06:06:08.536Z,74.70
2019-03-24T06:08:35.844Z,73.40
2019-03-24T06:11:03.102Z,70.60
2019-03-24T06:13:29.380Z,67.40
2019-03-24T06:15:55.651Z,64.80
2019-03-24T06:18:22.171Z,62.60
2019-03-24T06:20:48.431Z,61.90
2019-03-24T06:23:14.611Z,60.10
2019-03-24T06:25:40.795Z,58.00
2019-03-24T06:28:06.951Z,56.20
2019-03-24T06:30:33.335Z,55.10
2019-03-24T06:32:59.567Z,54.50
2019-03-24T06:35:26.733Z,53.10
2019-03-24T06:37:52.928Z,52.90
2019-03-24T06:40:19.878Z,51.00
2019-03-24T06:42:46.236Z,48.80
2019-03-24T06:45:12.840Z,49.70
2019-03-24T06:47:38.984Z,52.00
2019-03-24T06:50:06.175Z,53.90
2019-03-24T06:52:32.436Z,55.20
2019-03-24T06:54:58.588Z,57.20
2019-03-24T06:57:24.775Z,59.00
2019-03-24T06:59:50.932Z,58.70
2019-03-24T07:02:17.113Z,57.30
2019-03-24T07:04:43.315Z,54.50
2019-03-24T07:07:09.510Z,51.70
2019-03-24T07:09:35.668Z,49.60
2019-03-24T07:12:01.923Z,47.70
2019-03-24T07:14:28.099Z,45.60
2019-03-24T07:16:54.272Z,43.10
2019-03-24T07:19:20.467Z,41.90
2019-03-24T07:21:47.790Z,38.50
2019-03-24T07:24:13.948Z,35.30
2019-03-24T07:26:41.229Z,33.50
2019-03-24T07:29:07.400Z,32.40
2019-03-24T07:31:33.556Z,30.50
2019-03-24T07:33:59.723Z,32.60
2019-03-24T07:36:26.880Z,33.20
2019-03-24T07:38:53.047Z,32.70
2019-03-24T07:41:19.204Z,32.50
2019-03-24T07:43:45.411Z,31.80
2019-03-24T07:46:11.568Z,29.90
2019-03-24T07:48:37.812Z,28.90
2019-03-24T07:51:03.979Z,29.20
2019-03-24T07:53:30.218Z,28.20
2019-03-24T07:55:56.401Z,28.60
2019-03-24T07:58:22.591Z,27.50
2019-03-24T08:00:48.740Z,26.60
2019-03-24T08:03:14.923Z,27.30
2019-03-24T08:05:41.083Z,27.70
2019-03-24T08:08:07.459Z,27.20
2019-03-24T08:10:33.616Z,27.30
2019-03-24T08:12:59.796Z,27.60
2019-03-24T08:15:25.957Z,27.50
2019-03-24T08:17:52.319Z,27.80
2019-03-24T08:20:18.577Z,27.20
2019-03-24T08:22:44.805Z,25.90
2019-03-24T08:25:11.289Z,25.20
2019-03-24T08:27:38.682Z,25.00
2019-03-24T08:30:06.355Z,23.80
2019-03-24T08:32:32.651Z,23.90
2019-03-24T08:34:58.832Z,24.10
2019-03-24T08:37:25.000Z,25.00
2019-03-24T08:39:53.080Z,24.80
2019-03-24T08:42:19.241Z,24.80
2019-03-24T08:44:46.506Z,23.10
2019-03-24T08:47:12.656Z,21.50
2019-03-24T08:49:38.852Z,20.80
2019-03-24T08:52:06.040Z,21.30
2019-03-24T08:54:32.212Z,20.30
2019-03-24T08:56:58.564Z,21.20
2019-03-24T08:59:24.786Z,20.50
2019-03-24T09:01:50.991Z,19.70
2019-03-24T09:04:17.151Z,19.50
2019-03-24T09:06:43.448Z,20.40
2019-03-24T09:09:09.667Z,20.00
2019-03-24T09:11:35.829Z,20.20
2019-03-24T09:14:01.986Z,19.60
2019-03-24T09:16:28.191Z,19.90
2019-03-24T09:18:54.439Z,18.90
2019-03-24T09:21:20.619Z,18.70
2019-03-24T09:23:46.831Z,18.90
2019-03-24T09:26:13.070Z,19.60
2019-03-24T09:28:39.279Z,20.10
2019-03-24T09:31:08.278Z,18.60
2019-03-24T09:33:35.197Z,19.10
2019-03-24T09:36:01.484Z,19.00
2019-03-24T09:38:27.744Z,19.20
2019-03-24T09:40:54.168Z,18.90
2019-03-24T09:43:20.416Z,18.70
2019-03-24T09:45:46.640Z,19.80
2019-03-24T09:48:12.862Z,20.10
2019-03-24T09:50:39.076Z,18.90
2019-03-24T09:53:05.334Z,18.50
2019-03-24T09:55:32.569Z,18.50
2019-03-24T09:57:58.787Z,19.10
2019-03-24T10:00:25.194Z,19.70
2019-03-24T10:02:51.429Z,20.30
2019-03-24T10:05:17.606Z,19.90
2019-03-24T10:07:43.783Z,19.10
2019-03-24T10:10:10.432Z,19.40
2019-03-24T10:12:37.672Z,19.30
2019-03-24T10:15:05.148Z,19.80
2019-03-24T10:17:31.355Z,21.10
2019-03-24T10:19:57.644Z,20.70
2019-03-24T10:22:23.816Z,19.90
2019-03-24T10:24:49.991Z,20.90
2019-03-24T10:27:16.141Z,20.80
2019-03-24T10:29:42.356Z,18.80
2019-03-24T10:32:08.675Z,18.50
2019-03-24T10:34:34.835Z,17.40
2019-03-24T10:37:00.997Z,17.20
2019-03-24T10:39:27.179Z,17.50
2019-03-24T10:41:53.331Z,19.40
2019-03-24T10:44:19.520Z,19.60
2019-03-24T10:46:45.689Z,20.00
2019-03-24T10:49:11.899Z,19.10
2019-03-24T10:51:38.109Z,19.20
2019-03-24T10:54:04.275Z,19.60
2019-03-24T10:56:30.439Z,19.80
2019-03-24T10:58:56.737Z,19.50
2019-03-24T11:01:22.958Z,19.10
2019-03-24T11:03:56.020Z,19.60
2019-03-24T11:06:22.560Z,19.10
2019-03-24T11:08:48.923Z,19.80
2019-03-24T11:11:15.255Z,19.40
2019-03-24T11:13:41.640Z,18.80
2019-03-24T11:16:07.908Z,18.60
2019-03-24T11:18:34.410Z,19.00
2019-03-24T11:21:00.588Z,19.00
2019-03-24T11:23:27.289Z,19.20
2019-03-24T11:25:54.910Z,18.70
2019-03-24T11:28:21.131Z,19.90
2019-03-24T11:30:47.317Z,19.50
2019-03-24T11:33:13.568Z,19.10
2019-03-24T11:35:39.757Z,19.40
2019-03-24T11:38:05.972Z,18.70
2019-03-24T11:40:32.229Z,18.60
2019-03-24T11:42:58.404Z,17.90
2019-03-24T11:45:26.892Z,17.90
2019-03-24T11:47:59.066Z,18.30
2019-03-24T11:50:27.736Z,18.60
2019-03-24T11:52:53.928Z,18.80
2019-03-24T11:55:22.063Z,18.80
2019-03-24T11:57:48.529Z,19.00
2019-03-24T12:00:16.088Z,19.10
2019-03-24T12:02:42.467Z,18.40
2019-03-24T12:05:09.877Z,19.80
2019-03-24T12:07:36.495Z,22.40
2019-03-24T12:10:05.466Z,22.90
2019-03-24T12:12:31.763Z,24.40
2019-03-24T12:14:57.991Z,25.50
2019-03-24T12:17:24.172Z,27.80
2019-03-24T12:19:56.704Z,28.00
2019-03-24T12:22:18.582Z,29.00
2019-03-24T12:24:44.866Z,29.00
2019-03-24T12:27:12.081Z,28.80
2019-03-24T12:29:38.287Z,28.60
2019-03-24T12:32:04.757Z,30.00
2019-03-24T12:34:30.959Z,29.00
2019-03-24T12:36:57.120Z,31.30
2019-03-24T12:39:23.321Z,30.30
2019-03-24T12:42:02.545Z,30.00
2019-03-24T12:44:31.643Z,31.00
2019-03-24T12:46:57.957Z,32.50
2019-03-24T12:49:24.112Z,33.20
2019-03-24T12:51:50.646Z,32.00
2019-03-24T12:54:16.943Z,32.00
2019-03-24T12:56:43.171Z,31.40
2019-03-24T12:59:09.532Z,30.80
2019-03-24T13:01:35.840Z,30.30
2019-03-24T13:04:02.081Z,31.90
2019-03-24T13:06:28.392Z,32.30
2019-03-24T13:08:54.584Z,32.30
2019-03-24T13:11:20.818Z,32.00
2019-03-24T13:13:47.135Z,32.00
2019-03-24T13:16:13.461Z,33.10
2019-03-24T13:18:41.226Z,33.30
2019-03-24T13:21:07.482Z,32.50
2019-03-24T13:23:33.721Z,33.00
2019-03-24T13:26:00.146Z,32.60
2019-03-24T13:28:30.086Z,31.70
2019-03-24T13:30:56.350Z,32.40
2019-03-24T13:33:22.605Z,33.70
2019-03-24T13:35:50.720Z,33.10
2019-03-24T13:38:41.567Z,33.40
2019-03-24T13:41:21.578Z,34.00
2019-03-24T13:43:47.780Z,33.90
2019-03-24T13:46:13.951Z,34.70
2019-03-24T13:48:40.192Z,35.20
2019-03-24T13:51:06.840Z,34.70
2019-03-24T13:53:33.008Z,34.00
2019-03-24T13:55:59.173Z,34.80
2019-03-24T13:58:25.455Z,34.40
2019-03-24T14:00:51.750Z,35.10
2019-03-24T14:03:17.993Z,34.00
2019-03-24T14:05:44.385Z,34.50
2019-03-24T14:08:10.524Z,34.70
2019-03-24T14:10:36.709Z,34.30
2019-03-24T14:13:02.971Z,35.00
2019-03-24T14:15:29.151Z,35.50
2019-03-24T14:17:55.337Z,35.70
2019-03-24T14:20:21.693Z,35.50
2019-03-24T14:22:47.904Z,35.20
2019-03-24T14:25:14.148Z,35.50
2019-03-24T14:27:40.451Z,35.30
2019-03-24T14:30:07.541Z,36.10
2019-03-24T14:32:33.740Z,34.80
2019-03-24T14:34:59.923Z,34.50
2019-03-24T14:37:26.104Z,35.60
2019-03-24T14:39:52.296Z,35.50
2019-03-24T14:42:21.839Z,35.10
2019-03-24T14:44:48.040Z,34.80
2019-03-24T14:47:14.248Z,35.10
2019-03-24T14:49:40.417Z,35.50
2019-03-24T14:52:06.588Z,35.30
2019-03-24T14:54:32.785Z,36.50
2019-03-24T14:56:58.987Z,36.30
2019-03-24T14:59:25.421Z,35.50
2019-03-24T15:01:51.596Z,34.70
2019-03-24T15:04:17.779Z,35.40
2019-03-24T15:06:43.940Z,34.90
2019-03-24T15:09:10.100Z,34.90
2019-03-24T15:11:36.290Z,35.40
2019-03-24T15:14:02.777Z,36.40
2019-03-24T15:16:28.990Z,37.00
2019-03-24T15:18:55.227Z,36.20
2019-03-24T15:21:21.488Z,36.50
2019-03-24T15:23:47.691Z,36.60
2019-03-24T15:26:13.894Z,36.20
2019-03-24T15:28:40.062Z,37.30
2019-03-24T15:31:06.265Z,36.70
2019-03-24T15:33:32.455Z,37.20
2019-03-24T15:35:58.659Z,37.60
2019-03-24T15:38:24.821Z,37.60
2019-03-24T15:40:51.004Z,38.10
2019-03-24T15:43:23.633Z,37.80
2019-03-24T15:45:49.842Z,37.60
2019-03-24T15:48:16.059Z,38.00
2019-03-24T15:50:42.227Z,38.10
2019-03-24T15:53:08.418Z,39.00
2019-03-24T15:55:34.706Z,38.80
2019-03-24T15:58:00.895Z,39.30
2019-03-24T16:00:39.281Z,39.50
2019-03-24T16:03:05.735Z,38.80
2019-03-24T16:05:31.929Z,40.10
2019-03-24T16:07:59.318Z,39.30
2019-03-24T16:10:34.857Z,39.20
2019-03-24T16:12:54.729Z,40.20
2019-03-24T16:15:21.524Z,39.90
2019-03-24T16:17:47.911Z,40.10
2019-03-24T16:20:14.083Z,40.60
2019-03-24T16:22:40.283Z,40.70
2019-03-24T16:25:06.661Z,40.70
2019-03-24T16:27:35.055Z,40.00
2019-03-24T16:30:00.947Z,41.00
2019-03-24T16:32:28.219Z,40.90
2019-03-24T16:34:54.386Z,41.30
2019-03-24T16:37:20.558Z,41.30
2019-03-24T16:39:46.752Z,41.60
2019-03-24T16:42:12.904Z,41.60
2019-03-24T16:44:40.471Z,41.40
2019-03-24T16:47:06.644Z,41.90
2019-03-24T16:49:32.826Z,41.70
2019-03-24T16:51:59.039Z,42.00
2019-03-24T16:54:25.208Z,42.40
2019-03-24T16:56:51.412Z,43.10
2019-03-24T16:59:17.619Z,43.70
2019-03-24T17:01:43.792Z,43.60
2019-03-24T17:04:10.113Z,43.60
2019-03-24T17:06:36.271Z,44.20
2019-03-24T17:09:04.773Z,44.60
2019-03-24T17:11:31.175Z,45.20
2019-03-24T17:13:59.236Z,45.50
2019-03-24T17:16:25.416Z,45.80
2019-03-24T17:18:51.615Z,45.50
2019-03-24T17:21:17.775Z,45.90
2019-03-24T17:23:43.936Z,47.10
2019-03-24T17:26:10.180Z,48.20
2019-03-24T17:28:36.353Z,48.70
2019-03-24T17:31:02.514Z,49.50
2019-03-24T17:33:28.785Z,49.40
2019-03-24T17:35:55.362Z,49.70
2019-03-24T17:38:21.512Z,50.30
2019-03-24T17:40:47.696Z,50.50
2019-03-24T17:43:13.844Z,51.00
2019-03-24T17:45:40.006Z,51.30
2019-03-24T17:48:06.201Z,50.90
2019-03-24T17:50:32.445Z,51.60
2019-03-24T17:52:58.637Z,51.60
2019-03-24T17:55:27.800Z,51.50
2019-03-24T17:57:52.961Z,52.10
2019-03-24T18:00:36.438Z,51.70
2019-03-24T18:03:02.819Z,52.20
2019-03-24T18:05:29.017Z,52.60
2019-03-24T18:07:55.224Z,53.50
2019-03-24T18:10:21.392Z,53.80
2019-03-24T18:12:47.579Z,54.40
2019-03-24T18:15:14.545Z,55.30
2019-03-24T18:17:40.723Z,55.90
2019-03-24T18:20:09.931Z,57.30
2019-03-24T18:22:36.372Z,58.20
2019-03-24T18:25:07.261Z,58.20
2019-03-24T18:27:33.409Z,58.70
2019-03-24T18:29:59.584Z,59.60
2019-03-24T18:32:25.858Z,60.00
2019-03-24T18:34:52.028Z,60.40
2019-03-24T18:37:18.188Z,60.70
2019-03-24T18:39:44.373Z,61.00
2019-03-24T18:42:10.536Z,62.10
2019-03-24T18:44:36.688Z,62.80
2019-03-24T18:47:02.887Z,63.70
2019-03-24T18:49:29.056Z,64.70
2019-03-24T18:51:55.216Z,65.60
2019-03-24T18:54:21.440Z,66.20
2019-03-24T18:56:47.603Z,66.60
2019-03-24T18:59:13.784Z,67.30
2019-03-24T19:01:39.944Z,67.60
2019-03-24T19:04:06.107Z,68.00
2019-03-24T19:06:32.293Z,67.90
2019-03-24T19:08:58.466Z,67.10
2019-03-24T19:11:24.632Z,67.10
2019-03-24T19:13:50.823Z,67.60
2019-03-24T19:16:17.009Z,67.80
2019-03-24T19:18:43.187Z,67.30
2019-03-24T19:21:09.382Z,66.40
2019-03-24T19:23:35.571Z,65.30
2019-03-24T19:26:01.986Z,65.20
2019-03-24T19:28:29.291Z,64.20
2019-03-24T19:30:55.483Z,63.80
2019-03-24T19:33:21.767Z,63.80
2019-03-24T19:35:47.955Z,63.80
2019-03-24T19:38:14.216Z,63.90
2019-03-24T19:40:40.495Z,64.10
2019-03-24T19:43:06.662Z,64.30
2019-03-24T19:45:32.957Z,64.60
2019-03-24T19:47:59.195Z,64.40
2019-03-24T19:50:25.453Z,64.50
2019-03-24T19:52:51.734Z,64.90
2019-03-24T19:55:17.940Z,64.90
2019-03-24T19:57:44.136Z,64.90
2019-03-24T20:00:11.605Z,65.00
2019-03-24T20:02:38.863Z,64.70
2019-03-24T20:05:05.134Z,65.00
2019-03-24T20:07:31.533Z,65.30
2019-03-24T20:09:57.721Z,65.50
2019-03-24T20:12:23.879Z,65.80
2019-03-24T20:14:50.123Z,66.20
2019-03-24T20:17:16.415Z,66.30
2019-03-24T20:19:42.563Z,66.70
2019-03-24T20:22:08.724Z,66.70
2019-03-24T20:24:34.905Z,67.00
2019-03-24T20:27:01.072Z,67.00
2019-03-24T20:29:27.261Z,67.50
2019-03-24T20:31:53.439Z,67.80
2019-03-24T20:34:19.627Z,68.10
2019-03-24T20:36:45.796Z,68.60
2019-03-24T20:39:11.989Z,69.00
2019-03-24T20:41:38.251Z,70.40
2019-03-24T20:44:04.427Z,70.10
2019-03-24T20:46:30.626Z,70.30
2019-03-24T20:48:56.805Z,70.80
2019-03-24T20:51:22.969Z,71.00
2019-03-24T20:53:50.135Z,71.50
2019-03-24T20:56:16.348Z,71.90
2019-03-24T20:58:44.184Z,72.20
2019-03-24T21:01:10.371Z,72.80
2019-03-24T21:03:36.536Z,72.80
2019-03-24T21:06:02.810Z,73.10
2019-03-24T21:08:28.991Z,72.80
2019-03-24T21:10:55.150Z,72.80
2019-03-24T21:13:21.405Z,71.70
2019-03-24T21:15:47.653Z,70.90
2019-03-24T21:18:13.817Z,71.00
2019-03-24T21:20:39.980Z,71.60
2019-03-24T21:23:06.170Z,72.20
2019-03-24T21:25:32.319Z,73.10
2019-03-24T21:27:58.476Z,73.50
2019-03-24T21:30:36.069Z,73.90
2019-03-24T21:33:02.467Z,73.50
2019-03-24T21:35:28.621Z,73.70
2019-03-24T21:37:54.824Z,74.30
2019-03-24T21:40:21.008Z,74.90
2019-03-24T21:42:47.167Z,75.30
2019-03-24T21:45:13.469Z,75.70
2019-03-24T21:47:39.672Z,76.10
2019-03-24T21:50:06.434Z,75.90
2019-03-24T21:52:32.602Z,76.00
2019-03-24T21:54:58.795Z,76.40
2019-03-24T21:57:24.953Z,76.40
2019-03-24T21:59:51.165Z,76.50
2019-03-24T22:02:17.455Z,76.60
2019-03-24T22:04:43.706Z,76.70
2019-03-24T22:07:09.891Z,76.80
2019-03-24T22:09:36.061Z,77.60
2019-03-24T22:12:02.245Z,77.40
2019-03-24T22:14:28.431Z,77.50
2019-03-24T22:16:54.616Z,77.80
2019-03-24T22:19:20.804Z,78.30
2019-03-24T22:21:46.980Z,78.40
2019-03-24T22:24:13.149Z,78.90
2019-03-24T22:26:40.156Z,79.10
2019-03-24T22:29:06.340Z,79.40
2019-03-24T22:31:32.512Z,79.80
2019-03-24T22:33:58.684Z,80.00
2019-03-24T22:36:24.866Z,79.90
2019-03-24T22:38:51.013Z,80.10
2019-03-24T22:41:17.207Z,80.70
2019-03-24T22:43:44.544Z,81.10
2019-03-24T22:46:10.731Z,81.30
2019-03-24T22:48:37.012Z,81.40
2019-03-24T22:51:03.208Z,81.50
2019-03-24T22:53:29.404Z,81.50
2019-03-24T22:55:55.553Z,81.30
2019-03-24T22:58:21.707Z,82.60
2019-03-24T23:00:53.240Z,81.80
2019-03-24T23:03:19.789Z,81.90
2019-03-24T23:05:45.995Z,82.10
2019-03-24T23:08:12.205Z,82.40
2019-03-24T23:10:38.431Z,82.70
2019-03-24T23:13:04.714Z,82.50
2019-03-24T23:15:30.890Z,83.00
2019-03-24T23:17:57.147Z,83.20
2019-03-24T23:20:23.316Z,83.30
2019-03-24T23:22:49.475Z,83.50
2019-03-24T23:25:15.642Z,83.20
2019-03-24T23:27:42.014Z,83.40
2019-03-24T23:30:09.382Z,83.40
2019-03-24T23:32:36.648Z,83.40
2019-03-24T23:35:07.347Z,83.10
2019-03-24T23:37:33.523Z,83.10
2019-03-24T23:39:59.791Z,83.10
2019-03-24T23:42:25.985Z,82.90
2019-03-24T23:44:52.188Z,82.90
2019-03-24T23:47:18.363Z,82.80
2019-03-24T23:49:44.528Z,82.80
2019-03-24T23:52:10.683Z,83.00
2019-03-24T23:54:36.852Z,82.90
2019-03-24T23:57:03.108Z,82.60
2019-03-24T23:59:29.290Z,82.50
